sensor_id;sensor_type;location;lat;lon;timestamp;pressure;altitude;pressure_sealevel;temperature;humidity
75656;BME280;64252;51.094;13.714;2022-12-04T00:00:56;100758.31;;;1.42;91.23
75656;BME280;64252;51.094;13.714;2022-12-04T00:03:21;100761.63;;;1.44;91.72
75656;BME280;64252;51.094;13.714;2022-12-04T00:05:47;100764.88;;;1.46;91.70
75656;BME280;64252;51.094;13.714;2022-12-04T00:08:13;100764.09;;;1.46;91.32
75656;BME280;64252;51.094;13.714;2022-12-04T00:10:42;100774.41;;;1.45;91.84
75656;BME280;64252;51.094;13.714;2022-12-04T00:13:08;100765.72;;;1.47;91.12
75656;BME280;64252;51.094;13.714;2022-12-04T00:15:34;100760.78;;;1.44;91.34
75656;BME280;64252;51.094;13.714;2022-12-04T00:17:59;100767.19;;;1.44;91.62
75656;BME280;64252;51.094;13.714;2022-12-04T00:20:25;100765.22;;;1.45;92.05
75656;BME280;64252;51.094;13.714;2022-12-04T00:22:51;100759.97;;;1.43;91.78
75656;BME280;64252;51.094;13.714;2022-12-04T00:25:17;100756.88;;;1.45;91.54
75656;BME280;64252;51.094;13.714;2022-12-04T00:27:43;100760.13;;;1.47;92.25
75656;BME280;64252;51.094;13.714;2022-12-04T00:30:09;100763.63;;;1.52;91.24
75656;BME280;64252;51.094;13.714;2022-12-04T00:32:34;100759.69;;;1.53;91.45
75656;BME280;64252;51.094;13.714;2022-12-04T00:35:01;100752.78;;;1.51;91.47
75656;BME280;64252;51.094;13.714;2022-12-04T00:37:27;100758.06;;;1.52;90.84
75656;BME280;64252;51.094;13.714;2022-12-04T00:39:53;100762.63;;;1.48;90.74
75656;BME280;64252;51.094;13.714;2022-12-04T00:42:18;100755.41;;;1.47;91.21
75656;BME280;64252;51.094;13.714;2022-12-04T00:44:44;100748.19;;;1.46;91.06
75656;BME280;64252;51.094;13.714;2022-12-04T00:47:09;100756.22;;;1.48;90.72
75656;BME280;64252;51.094;13.714;2022-12-04T00:49:35;100749.00;;;1.47;91.09
75656;BME280;64252;51.094;13.714;2022-12-04T00:52:00;100760.97;;;1.47;91.75
75656;BME280;64252;51.094;13.714;2022-12-04T00:54:26;100752.97;;;1.46;91.06
75656;BME280;64252;51.094;13.714;2022-12-04T00:56:51;100754.91;;;1.45;91.22
75656;BME280;64252;51.094;13.714;2022-12-04T00:59:17;100753.13;;;1.49;91.05
75656;BME280;64252;51.094;13.714;2022-12-04T01:01:42;100751.50;;;1.48;91.33
75656;BME280;64252;51.094;13.714;2022-12-04T01:04:08;100750.97;;;1.46;90.97
75656;BME280;64252;51.094;13.714;2022-12-04T01:06:33;100749.34;;;1.45;91.15
75656;BME280;64252;51.094;13.714;2022-12-04T01:09:01;100740.34;;;1.48;90.72
75656;BME280;64252;51.094;13.714;2022-12-04T01:11:28;100744.28;;;1.47;90.57
75656;BME280;64252;51.094;13.714;2022-12-04T01:13:54;100735.63;;;1.49;90.55
75656;BME280;64252;51.094;13.714;2022-12-04T01:16:33;100741.19;;;1.49;90.66
75656;BME280;64252;51.094;13.714;2022-12-04T01:18:59;100734.63;;;1.45;91.10
75656;BME280;64252;51.094;13.714;2022-12-04T01:21:26;100747.41;;;1.46;91.34
75656;BME280;64252;51.094;13.714;2022-12-04T01:23:51;100736.25;;;1.46;90.77
75656;BME280;64252;51.094;13.714;2022-12-04T01:26:17;100734.28;;;1.46;91.02
75656;BME280;64252;51.094;13.714;2022-12-04T01:28:43;100736.09;;;1.51;90.96
75656;BME280;64252;51.094;13.714;2022-12-04T01:31:19;100728.56;;;1.51;91.15
75656;BME280;64252;51.094;13.714;2022-12-04T01:33:46;100731.69;;;1.50;90.56
75656;BME280;64252;51.094;13.714;2022-12-04T01:36:15;100727.56;;;1.47;90.89
75656;BME280;64252;51.094;13.714;2022-12-04T01:38:41;100734.13;;;1.51;90.94
75656;BME280;64252;51.094;13.714;2022-12-04T01:41:08;100729.75;;;1.50;90.73
75656;BME280;64252;51.094;13.714;2022-12-04T01:43:36;100720.88;;;1.48;90.77
75656;BME280;64252;51.094;13.714;2022-12-04T01:46:02;100719.09;;;1.52;90.39
75656;BME280;64252;51.094;13.714;2022-12-04T01:48:43;100714.66;;;1.51;90.86
75656;BME280;64252;51.094;13.714;2022-12-04T01:51:14;100702.41;;;1.52;90.38
75656;BME280;64252;51.094;13.714;2022-12-04T01:53:49;100696.00;;;1.52;91.11
75656;BME280;64252;51.094;13.714;2022-12-04T01:56:17;100693.56;;;1.50;91.03
75656;BME280;64252;51.094;13.714;2022-12-04T01:58:45;100696.34;;;1.50;90.84
75656;BME280;64252;51.094;13.714;2022-12-04T02:01:12;100692.75;;;1.50;91.12
75656;BME280;64252;51.094;13.714;2022-12-04T02:03:39;100686.34;;;1.49;90.78
75656;BME280;64252;51.094;13.714;2022-12-04T02:06:05;100684.06;;;1.51;90.61
75656;BME280;64252;51.094;13.714;2022-12-04T02:08:31;100676.53;;;1.52;91.43
75656;BME280;64252;51.094;13.714;2022-12-04T02:13:56;100680.13;;;1.52;90.90
75656;BME280;64252;51.094;13.714;2022-12-04T02:16:31;100678.34;;;1.56;90.61
75656;BME280;64252;51.094;13.714;2022-12-04T02:21:58;100667.34;;;1.51;90.79
75656;BME280;64252;51.094;13.714;2022-12-04T02:24:40;100675.09;;;1.54;90.55
75656;BME280;64252;51.094;13.714;2022-12-04T02:30:23;100673.13;;;1.55;91.09
75656;BME280;64252;51.094;13.714;2022-12-04T02:33:33;100671.63;;;1.57;91.00
75656;BME280;64252;51.094;13.714;2022-12-04T02:36:09;100676.22;;;1.53;91.09
75656;BME280;64252;51.094;13.714;2022-12-04T02:38:42;100669.81;;;1.53;90.74
75656;BME280;64252;51.094;13.714;2022-12-04T02:41:16;100665.09;;;1.53;90.72
75656;BME280;64252;51.094;13.714;2022-12-04T02:44:03;100663.94;;;1.54;91.28
75656;BME280;64252;51.094;13.714;2022-12-04T02:46:37;100673.94;;;1.55;91.06
75656;BME280;64252;51.094;13.714;2022-12-04T02:49:13;100668.38;;;1.55;90.96
75656;BME280;64252;51.094;13.714;2022-12-04T02:51:40;100676.38;;;1.57;91.09
75656;BME280;64252;51.094;13.714;2022-12-04T02:54:11;100684.91;;;1.60;91.00
75656;BME280;64252;51.094;13.714;2022-12-04T02:56:41;100672.47;;;1.58;91.05
75656;BME280;64252;51.094;13.714;2022-12-04T02:59:19;100679.84;;;1.62;91.43
75656;BME280;64252;51.094;13.714;2022-12-04T03:01:51;100675.94;;;1.63;90.42
75656;BME280;64252;51.094;13.714;2022-12-04T03:04:26;100673.16;;;1.63;90.73
75656;BME280;64252;51.094;13.714;2022-12-04T03:06:56;100661.50;;;1.61;91.43
75656;BME280;64252;51.094;13.714;2022-12-04T03:09:41;100665.94;;;1.62;91.08
75656;BME280;64252;51.094;13.714;2022-12-04T03:12:34;100660.88;;;1.64;91.32
75656;BME280;64252;51.094;13.714;2022-12-04T03:15:29;100661.03;;;1.68;91.31
75656;BME280;64252;51.094;13.714;2022-12-04T03:17:59;100655.16;;;1.69;90.71
75656;BME280;64252;51.094;13.714;2022-12-04T03:20:28;100652.38;;;1.69;91.10
75656;BME280;64252;51.094;13.714;2022-12-04T03:23:05;100656.16;;;1.73;90.55
75656;BME280;64252;51.094;13.714;2022-12-04T03:25:38;100655.81;;;1.75;90.66
75656;BME280;64252;51.094;13.714;2022-12-04T03:28:12;100656.00;;;1.79;90.76
75656;BME280;64252;51.094;13.714;2022-12-04T03:30:48;100665.50;;;1.77;90.74
75656;BME280;64252;51.094;13.714;2022-12-04T03:33:22;100651.06;;;1.75;90.76
75656;BME280;64252;51.094;13.714;2022-12-04T03:35:58;100661.22;;;1.80;91.16
75656;BME280;64252;51.094;13.714;2022-12-04T03:38:49;100662.19;;;1.75;91.11
75656;BME280;64252;51.094;13.714;2022-12-04T03:41:48;100661.38;;;1.75;91.30
75656;BME280;64252;51.094;13.714;2022-12-04T03:44:21;100658.59;;;1.75;91.34
75656;BME280;64252;51.094;13.714;2022-12-04T03:47:05;100667.75;;;1.75;90.78
75656;BME280;64252;51.094;13.714;2022-12-04T03:52:27;100670.06;;;1.73;90.84
75656;BME280;64252;51.094;13.714;2022-12-04T03:55:20;100677.25;;;1.74;90.72
75656;BME280;64252;51.094;13.714;2022-12-04T03:57:48;100678.91;;;1.75;91.75
75656;BME280;64252;51.094;13.714;2022-12-04T04:00:17;100671.69;;;1.74;91.22
75656;BME280;64252;51.094;13.714;2022-12-04T04:03:00;100674.81;;;1.73;91.54
75656;BME280;64252;51.094;13.714;2022-12-04T04:05:28;100665.31;;;1.74;91.28
75656;BME280;64252;51.094;13.714;2022-12-04T04:07:58;100665.31;;;1.74;91.47
75656;BME280;64252;51.094;13.714;2022-12-04T04:10:44;100662.53;;;1.74;91.37
75656;BME280;64252;51.094;13.714;2022-12-04T04:13:12;100671.69;;;1.74;91.04
75656;BME280;64252;51.094;13.714;2022-12-04T04:15:58;100670.06;;;1.73;91.76
75656;BME280;64252;51.094;13.714;2022-12-04T04:18:46;100667.75;;;1.75;91.66
75656;BME280;64252;51.094;13.714;2022-12-04T04:21:36;100676.13;;;1.75;91.54
75656;BME280;64252;51.094;13.714;2022-12-04T04:24:49;100674.31;;;1.80;91.56
75656;BME280;64252;51.094;13.714;2022-12-04T04:27:16;100674.31;;;1.80;92.20
75656;BME280;64252;51.094;13.714;2022-12-04T04:29:42;100660.75;;;1.78;91.77
75656;BME280;64252;51.094;13.714;2022-12-04T04:32:21;100669.56;;;1.80;91.68
75656;BME280;64252;51.094;13.714;2022-12-04T04:34:59;100673.19;;;1.81;91.63
75656;BME280;64252;51.094;13.714;2022-12-04T04:40:26;100677.44;;;1.78;91.58
75656;BME280;64252;51.094;13.714;2022-12-04T04:43:08;100664.81;;;1.81;91.76
75656;BME280;64252;51.094;13.714;2022-12-04T04:48:08;100663.03;;;1.85;91.34
75656;BME280;64252;51.094;13.714;2022-12-04T04:50:37;100669.09;;;1.87;91.54
75656;BME280;64252;51.094;13.714;2022-12-04T04:53:07;100661.91;;;1.86;91.43
75656;BME280;64252;51.094;13.714;2022-12-04T04:55:34;100659.78;;;1.83;91.79
75656;BME280;64252;51.094;13.714;2022-12-04T04:58:10;100672.03;;;1.82;91.99
75656;BME280;64252;51.094;13.714;2022-12-04T05:00:37;100654.69;;;1.85;92.16
75656;BME280;64252;51.094;13.714;2022-12-04T05:03:03;100670.25;;;1.86;92.22
75656;BME280;64252;51.094;13.714;2022-12-04T05:05:29;100668.28;;;1.86;92.01
75656;BME280;64252;51.094;13.714;2022-12-04T05:07:55;100659.94;;;1.86;92.59
75656;BME280;64252;51.094;13.714;2022-12-04T05:10:20;100656.84;;;1.88;92.42
75656;BME280;64252;51.094;13.714;2022-12-04T05:12:46;100654.53;;;1.90;92.01
75656;BME280;64252;51.094;13.714;2022-12-04T05:15:11;100656.19;;;1.91;92.39
75656;BME280;64252;51.094;13.714;2022-12-04T05:17:37;100655.66;;;1.89;91.90
75656;BME280;64252;51.094;13.714;2022-12-04T05:20:04;100660.75;;;1.87;92.55
75656;BME280;64252;51.094;13.714;2022-12-04T05:22:34;100651.28;;;1.88;92.56
75656;BME280;64252;51.094;13.714;2022-12-04T05:25:01;100655.66;;;1.89;92.27
75656;BME280;64252;51.094;13.714;2022-12-04T05:27:27;100653.38;;;1.91;92.12
75656;BME280;64252;51.094;13.714;2022-12-04T05:29:54;100652.72;;;1.94;92.48
75656;BME280;64252;51.094;13.714;2022-12-04T05:32:23;100652.09;;;1.97;92.14
75656;BME280;64252;51.094;13.714;2022-12-04T05:34:50;100651.44;;;2.00;92.19
75656;BME280;64252;51.094;13.714;2022-12-04T05:37:16;100654.72;;;2.02;92.08
75656;BME280;64252;51.094;13.714;2022-12-04T05:39:42;100648.81;;;2.03;92.51
75656;BME280;64252;51.094;13.714;2022-12-04T05:42:07;100648.00;;;2.03;92.39
75656;BME280;64252;51.094;13.714;2022-12-04T05:44:33;100633.59;;;2.01;91.94
75656;BME280;64252;51.094;13.714;2022-12-04T05:46:58;100640.16;;;2.05;92.55
75656;BME280;64252;51.094;13.714;2022-12-04T05:49:24;100636.06;;;2.11;92.73
75656;BME280;64252;51.094;13.714;2022-12-04T05:51:50;100642.47;;;2.11;91.79
75656;BME280;64252;51.094;13.714;2022-12-04T05:54:17;100647.19;;;2.11;91.70
75656;BME280;64252;51.094;13.714;2022-12-04T05:56:43;100639.31;;;2.13;92.07
75656;BME280;64252;51.094;13.714;2022-12-04T05:59:08;100640.16;;;2.13;92.33
75656;BME280;64252;51.094;13.714;2022-12-04T06:01:34;100629.81;;;2.14;92.23
75656;BME280;64252;51.094;13.714;2022-12-04T06:04:10;100629.81;;;2.14;91.93
75656;BME280;64252;51.094;13.714;2022-12-04T06:06:36;100628.19;;;2.13;91.99
75656;BME280;64252;51.094;13.714;2022-12-04T06:09:02;100628.19;;;2.13;92.05
75656;BME280;64252;51.094;13.714;2022-12-04T06:11:30;100632.94;;;2.12;92.11
75656;BME280;64252;51.094;13.714;2022-12-04T06:13:58;100638.50;;;2.12;91.94
75656;BME280;64252;51.094;13.714;2022-12-04T06:16:28;100637.69;;;2.12;92.31
75656;BME280;64252;51.094;13.714;2022-12-04T06:19:00;100633.75;;;2.13;92.05
75656;BME280;64252;51.094;13.714;2022-12-04T06:21:28;100634.56;;;2.13;92.73
75656;BME280;64252;51.094;13.714;2022-12-04T06:23:55;100636.53;;;2.13;92.84
75656;BME280;64252;51.094;13.714;2022-12-04T06:26:21;100638.19;;;2.14;92.49
75656;BME280;64252;51.094;13.714;2022-12-04T06:28:47;100636.53;;;2.13;92.12
75656;BME280;64252;51.094;13.714;2022-12-04T06:31:14;100633.75;;;2.13;91.82
75656;BME280;64252;51.094;13.714;2022-12-04T06:33:41;100640.16;;;2.13;92.14
75656;BME280;64252;51.094;13.714;2022-12-04T06:36:14;100649.84;;;2.16;91.88
75656;BME280;64252;51.094;13.714;2022-12-04T06:38:40;100646.53;;;2.14;91.97
75656;BME280;64252;51.094;13.714;2022-12-04T06:41:07;100646.53;;;2.14;91.59
75656;BME280;64252;51.094;13.714;2022-12-04T06:43:34;100637.38;;;2.13;92.26
75656;BME280;64252;51.094;13.714;2022-12-04T06:48:29;100650.47;;;2.13;92.74
75656;BME280;64252;51.094;13.714;2022-12-04T06:51:06;100652.94;;;2.14;92.46
75656;BME280;64252;51.094;13.714;2022-12-04T06:53:32;100661.78;;;2.16;92.48
75656;BME280;64252;51.094;13.714;2022-12-04T06:56:04;100661.78;;;2.16;92.39
75656;BME280;64252;51.094;13.714;2022-12-04T06:58:30;100654.75;;;2.19;92.50
75656;BME280;64252;51.094;13.714;2022-12-04T07:00:57;100656.53;;;2.24;92.47
75656;BME280;64252;51.094;13.714;2022-12-04T07:03:24;100664.59;;;2.25;92.52
75656;BME280;64252;51.094;13.714;2022-12-04T07:05:50;100672.59;;;2.27;92.81
75656;BME280;64252;51.094;13.714;2022-12-04T07:08:17;100665.06;;;2.27;93.21
75656;BME280;64252;51.094;13.714;2022-12-04T07:10:43;100657.84;;;2.26;92.64
75656;BME280;64252;51.094;13.714;2022-12-04T07:13:09;100652.28;;;2.26;92.60
75656;BME280;64252;51.094;13.714;2022-12-04T07:15:35;100665.56;;;2.29;92.26
75656;BME280;64252;51.094;13.714;2022-12-04T07:18:02;100658.50;;;2.32;92.59
75656;BME280;64252;51.094;13.714;2022-12-04T07:20:28;100656.53;;;2.32;92.56
75656;BME280;64252;51.094;13.714;2022-12-04T07:22:53;100654.25;;;2.34;92.43
75656;BME280;64252;51.094;13.714;2022-12-04T07:25:19;100657.03;;;2.34;92.31
75656;BME280;64252;51.094;13.714;2022-12-04T07:27:45;100656.38;;;2.37;92.64
75656;BME280;64252;51.094;13.714;2022-12-04T07:30:13;100656.38;;;2.37;92.60
75656;BME280;64252;51.094;13.714;2022-12-04T07:32:39;100657.22;;;2.38;92.96
75656;BME280;64252;51.094;13.714;2022-12-04T07:35:05;100654.91;;;2.40;92.48
75656;BME280;64252;51.094;13.714;2022-12-04T07:37:31;100664.56;;;2.42;92.45
75656;BME280;64252;51.094;13.714;2022-12-04T07:39:56;100659.00;;;2.42;91.86
75656;BME280;64252;51.094;13.714;2022-12-04T07:42:23;100663.91;;;2.45;92.29
75656;BME280;64252;51.094;13.714;2022-12-04T07:44:49;100663.28;;;2.48;92.11
75656;BME280;64252;51.094;13.714;2022-12-04T07:47:15;100656.56;;;2.49;92.01
75656;BME280;64252;51.094;13.714;2022-12-04T07:49:40;100655.38;;;2.50;91.92
75656;BME280;64252;51.094;13.714;2022-12-04T07:52:06;100641.63;;;2.54;92.18
75656;BME280;64252;51.094;13.714;2022-12-04T07:54:31;100656.69;;;2.61;92.23
75656;BME280;64252;51.094;13.714;2022-12-04T07:56:57;100649.00;;;2.67;91.80
75656;BME280;64252;51.094;13.714;2022-12-04T07:59:22;100647.50;;;2.70;91.83
75656;BME280;64252;51.094;13.714;2022-12-04T08:01:48;100648.47;;;2.74;91.91
75656;BME280;64252;51.094;13.714;2022-12-04T08:04:13;100652.75;;;2.80;91.97
75656;BME280;64252;51.094;13.714;2022-12-04T08:06:39;100647.31;;;2.83;91.37
75656;BME280;64252;51.094;13.714;2022-12-04T08:09:05;100649.78;;;2.85;91.47
75656;BME280;64252;51.094;13.714;2022-12-04T08:11:31;100650.59;;;2.85;91.17
75656;BME280;64252;51.094;13.714;2022-12-04T08:13:59;100657.00;;;2.86;91.36
75656;BME280;64252;51.094;13.714;2022-12-04T08:16:26;100655.19;;;2.90;92.09
75656;BME280;64252;51.094;13.714;2022-12-04T08:18:52;100646.50;;;2.91;92.09
75656;BME280;64252;51.094;13.714;2022-12-04T08:21:20;100653.88;;;2.96;91.92
75656;BME280;64252;51.094;13.714;2022-12-04T08:23:48;100651.91;;;2.96;91.40
75656;BME280;64252;51.094;13.714;2022-12-04T08:26:15;100657.63;;;3.00;91.38
75656;BME280;64252;51.094;13.714;2022-12-04T08:28:41;100657.63;;;3.00;91.64
75656;BME280;64252;51.094;13.714;2022-12-04T08:31:18;100651.38;;;3.03;91.82
75656;BME280;64252;51.094;13.714;2022-12-04T08:33:45;100660.25;;;3.05;91.31
75656;BME280;64252;51.094;13.714;2022-12-04T08:36:14;100660.25;;;3.05;91.68
75656;BME280;64252;51.094;13.714;2022-12-04T08:38:40;100654.66;;;3.05;91.42
75656;BME280;64252;51.094;13.714;2022-12-04T08:41:09;100649.56;;;3.07;90.92
75656;BME280;64252;51.094;13.714;2022-12-04T08:43:36;100657.44;;;3.05;90.91
75656;BME280;64252;51.094;13.714;2022-12-04T08:46:03;100650.88;;;3.09;91.12
75656;BME280;64252;51.094;13.714;2022-12-04T08:48:30;100646.25;;;3.14;90.80
75656;BME280;64252;51.094;13.714;2022-12-04T08:50:56;100645.59;;;3.17;90.70
75656;BME280;64252;51.094;13.714;2022-12-04T08:53:22;100649.84;;;3.23;90.97
75656;BME280;64252;51.094;13.714;2022-12-04T08:55:48;100654.25;;;3.32;90.86
75656;BME280;64252;51.094;13.714;2022-12-04T08:58:13;100648.94;;;3.39;90.55
75656;BME280;64252;51.094;13.714;2022-12-04T09:00:39;100652.38;;;3.45;90.15
75656;BME280;64252;51.094;13.714;2022-12-04T09:03:04;100644.13;;;3.48;90.29
75656;BME280;64252;51.094;13.714;2022-12-04T09:05:30;100645.44;;;3.51;89.59
75656;BME280;64252;51.094;13.714;2022-12-04T09:07:56;100630.81;;;3.54;90.25
75656;BME280;64252;51.094;13.714;2022-12-04T09:10:21;100631.63;;;3.54;89.88
75656;BME280;64252;51.094;13.714;2022-12-04T09:12:47;100628.19;;;3.58;90.12
75656;BME280;64252;51.094;13.714;2022-12-04T09:15:13;100633.09;;;3.61;89.83
75656;BME280;64252;51.094;13.714;2022-12-04T09:17:39;100630.75;;;3.63;89.92
75656;BME280;64252;51.094;13.714;2022-12-04T09:20:05;100624.97;;;3.68;89.82
75656;BME280;64252;51.094;13.714;2022-12-04T09:22:33;100629.44;;;3.69;89.58
75656;BME280;64252;51.094;13.714;2022-12-04T09:24:59;100628.75;;;3.72;89.62
75656;BME280;64252;51.094;13.714;2022-12-04T09:27:24;100627.94;;;3.71;89.31
75656;BME280;64252;51.094;13.714;2022-12-04T09:29:50;100625.97;;;3.72;89.60
75656;BME280;64252;51.094;13.714;2022-12-04T09:32:15;100636.28;;;3.80;89.74
75656;BME280;64252;51.094;13.714;2022-12-04T09:34:41;100630.00;;;3.83;89.22
75656;BME280;64252;51.094;13.714;2022-12-04T09:37:08;100637.22;;;3.84;88.71
75656;BME280;64252;51.094;13.714;2022-12-04T09:39:33;100638.19;;;3.88;88.87
75656;BME280;64252;51.094;13.714;2022-12-04T09:44:47;100640.28;;;3.91;88.52
75656;BME280;64252;51.094;13.714;2022-12-04T09:47:42;100634.50;;;3.96;88.71
75656;BME280;64252;51.094;13.714;2022-12-04T09:55:24;100629.16;;;4.12;89.24
75656;BME280;64252;51.094;13.714;2022-12-04T09:57:54;100636.19;;;4.18;89.21
75656;BME280;64252;51.094;13.714;2022-12-04T10:00:21;100620.22;;;4.18;88.42
75656;BME280;64252;51.094;13.714;2022-12-04T10:02:51;100624.44;;;4.24;88.95
75656;BME280;64252;51.094;13.714;2022-12-04T10:08:26;100631.22;;;4.23;88.71
75656;BME280;64252;51.094;13.714;2022-12-04T10:11:13;100618.84;;;4.24;88.84
75656;BME280;64252;51.094;13.714;2022-12-04T10:27:02;100591.91;;;4.40;88.61
75656;BME280;64252;51.094;13.714;2022-12-04T10:29:33;100609.84;;;4.39;88.31
75656;BME280;64252;51.094;13.714;2022-12-04T10:32:35;100608.19;;;4.38;88.44
75656;BME280;64252;51.094;13.714;2022-12-04T10:35:19;100615.50;;;4.31;89.50
75656;BME280;64252;51.094;13.714;2022-12-04T10:37:48;100609.44;;;4.29;89.33
75656;BME280;64252;51.094;13.714;2022-12-04T10:42:59;100599.78;;;4.26;89.02
75656;BME280;64252;51.094;13.714;2022-12-04T10:45:28;100587.06;;;4.29;89.35
75656;BME280;64252;51.094;13.714;2022-12-04T10:47:54;100586.28;;;4.28;89.51
75656;BME280;64252;51.094;13.714;2022-12-04T10:50:22;100589.88;;;4.29;89.91
75656;BME280;64252;51.094;13.714;2022-12-04T10:52:48;100586.28;;;4.28;89.64
75656;BME280;64252;51.094;13.714;2022-12-04T10:55:14;100586.28;;;4.28;89.10
75656;BME280;64252;51.094;13.714;2022-12-04T10:57:45;100588.09;;;4.24;89.06
75656;BME280;64252;51.094;13.714;2022-12-04T11:00:24;100586.00;;;4.21;89.45
75656;BME280;64252;51.094;13.714;2022-12-04T11:02:53;100589.28;;;4.23;89.01
75656;BME280;64252;51.094;13.714;2022-12-04T11:05:34;100586.28;;;4.28;88.93
75656;BME280;64252;51.094;13.714;2022-12-04T11:08:03;100584.44;;;4.32;89.14
75656;BME280;64252;51.094;13.714;2022-12-04T11:10:34;100580.25;;;4.38;89.37
75656;BME280;64252;51.094;13.714;2022-12-04T11:13:13;100590.19;;;4.48;88.68
75656;BME280;64252;51.094;13.714;2022-12-04T11:15:48;100588.00;;;4.54;89.40
75656;BME280;64252;51.094;13.714;2022-12-04T11:20:49;100600.13;;;4.58;88.99
75656;BME280;64252;51.094;13.714;2022-12-04T11:23:15;100604.22;;;4.60;88.61
75656;BME280;64252;51.094;13.714;2022-12-04T11:25:51;100599.91;;;4.63;88.35
75656;BME280;64252;51.094;13.714;2022-12-04T11:28:24;100605.63;;;4.66;88.30
75656;BME280;64252;51.094;13.714;2022-12-04T11:30:55;100597.13;;;4.63;87.99
75656;BME280;64252;51.094;13.714;2022-12-04T11:33:37;100590.84;;;4.66;89.01
75656;BME280;64252;51.094;13.714;2022-12-04T11:36:24;100595.25;;;4.67;88.36
75656;BME280;64252;51.094;13.714;2022-12-04T11:38:52;100574.06;;;4.66;87.85
75656;BME280;64252;51.094;13.714;2022-12-04T11:41:27;100582.22;;;4.71;88.69
75656;BME280;64252;51.094;13.714;2022-12-04T11:43:53;100590.16;;;4.69;88.46
75656;BME280;64252;51.094;13.714;2022-12-04T11:46:22;100588.63;;;4.71;88.33
75656;BME280;64252;51.094;13.714;2022-12-04T11:48:48;100580.41;;;4.75;88.68
75656;BME280;64252;51.094;13.714;2022-12-04T12:00:14;100580.41;;;4.87;88.17
75656;BME280;64252;51.094;13.714;2022-12-04T12:03:12;100579.03;;;4.93;89.26
75656;BME280;64252;51.094;13.714;2022-12-04T12:16:19;100558.78;;;5.08;88.14
75656;BME280;64252;51.094;13.714;2022-12-04T12:19:16;100560.88;;;5.11;88.94
75656;BME280;64252;51.094;13.714;2022-12-04T12:33:17;100536.13;;;5.13;88.60
75656;BME280;64252;51.094;13.714;2022-12-04T12:36:05;100542.09;;;5.12;88.06
75656;BME280;64252;51.094;13.714;2022-12-04T12:38:40;100535.69;;;5.11;88.62
75656;BME280;64252;51.094;13.714;2022-12-04T12:41:30;100531.25;;;5.10;88.31
75656;BME280;64252;51.094;13.714;2022-12-04T12:44:03;100529.16;;;5.07;88.45
75656;BME280;64252;51.094;13.714;2022-12-04T12:46:38;100541.03;;;5.04;88.28
75656;BME280;64252;51.094;13.714;2022-12-04T12:49:17;100531.94;;;5.07;87.69
75656;BME280;64252;51.094;13.714;2022-12-04T12:52:00;100531.47;;;5.05;88.32
75656;BME280;64252;51.094;13.714;2022-12-04T12:57:13;100527.63;;;5.10;87.90
75656;BME280;64252;51.094;13.714;2022-12-04T12:59:45;100520.53;;;5.12;87.84
75656;BME280;64252;51.094;13.714;2022-12-04T13:02:37;100528.56;;;5.14;87.14
75656;BME280;64252;51.094;13.714;2022-12-04T13:05:09;100528.91;;;5.12;87.21
75656;BME280;64252;51.094;13.714;2022-12-04T13:10:27;100516.53;;;5.13;88.17
75656;BME280;64252;51.094;13.714;2022-12-04T13:13:09;100523.78;;;5.14;88.18
75656;BME280;64252;51.094;13.714;2022-12-04T13:15:45;100507.91;;;5.18;88.11
75656;BME280;64252;51.094;13.714;2022-12-04T13:18:41;100500.69;;;5.17;87.88
75656;BME280;64252;51.094;13.714;2022-12-04T13:22:03;100503.28;;;5.22;87.19
75656;BME280;64252;51.094;13.714;2022-12-04T13:26:54;100500.09;;;5.24;87.14
75656;BME280;64252;51.094;13.714;2022-12-04T13:30:04;100503.28;;;5.22;87.24
75656;BME280;64252;51.094;13.714;2022-12-04T13:32:37;100496.72;;;5.18;86.73
75656;BME280;64252;51.094;13.714;2022-12-04T13:38:11;100499.06;;;5.16;87.25
75656;BME280;64252;51.094;13.714;2022-12-04T13:40:42;100496.72;;;5.18;87.89
75656;BME280;64252;51.094;13.714;2022-12-04T13:43:46;100497.53;;;5.19;87.57
75656;BME280;64252;51.094;13.714;2022-12-04T13:46:06;100507.22;;;5.21;87.29
75656;BME280;64252;51.094;13.714;2022-12-04T13:48:38;100504.44;;;5.21;87.47
75656;BME280;64252;51.094;13.714;2022-12-04T13:53:41;100499.28;;;5.23;87.13
75656;BME280;64252;51.094;13.714;2022-12-04T13:56:23;100508.88;;;5.22;87.28
75656;BME280;64252;51.094;13.714;2022-12-04T13:59:04;100503.28;;;5.22;86.96
75656;BME280;64252;51.094;13.714;2022-12-04T14:01:39;100502.31;;;5.18;87.38
75656;BME280;64252;51.094;13.714;2022-12-04T14:04:06;100507.47;;;5.16;87.15
75656;BME280;64252;51.094;13.714;2022-12-04T14:06:37;100520.97;;;5.14;87.66
75656;BME280;64252;51.094;13.714;2022-12-04T14:09:16;100512.94;;;5.13;87.76
75656;BME280;64252;51.094;13.714;2022-12-04T14:11:45;100521.22;;;5.09;87.41
75656;BME280;64252;51.094;13.714;2022-12-04T14:14:27;100515.50;;;5.06;87.37
75656;BME280;64252;51.094;13.714;2022-12-04T14:16:55;100519.34;;;5.01;87.07
75656;BME280;64252;51.094;13.714;2022-12-04T14:21:55;100523.91;;;4.94;87.52
75656;BME280;64252;51.094;13.714;2022-12-04T14:26:50;100517.47;;;4.93;87.71
75656;BME280;64252;51.094;13.714;2022-12-04T14:29:45;100524.22;;;4.92;88.27
75656;BME280;64252;51.094;13.714;2022-12-04T14:32:20;100520.16;;;4.90;87.87
75656;BME280;64252;51.094;13.714;2022-12-04T14:34:48;100513.25;;;4.87;87.55
75656;BME280;64252;51.094;13.714;2022-12-04T14:37:23;100515.94;;;4.83;87.87
75656;BME280;64252;51.094;13.714;2022-12-04T14:39:50;100513.81;;;4.80;88.18
75656;BME280;64252;51.094;13.714;2022-12-04T14:42:21;100508.94;;;4.77;88.43
75656;BME280;64252;51.094;13.714;2022-12-04T14:44:57;100508.81;;;4.74;88.31
75656;BME280;64252;51.094;13.714;2022-12-04T14:47:47;100509.16;;;4.72;87.88
75656;BME280;64252;51.094;13.714;2022-12-04T14:55:30;100501.25;;;4.74;88.07